Forside
METAR-TAF:

METAR-TAF

Lufthavne :

Pyongyang, Nordkorea

Breddekreds: 39-02N, længdekreds: 125-47E, højde: 36 m

METAR: fraværende

Tid: 01:40 (17:10 UTC)

Vejrudsigter

Denne rapport blev lavet for 12 timer og 50 minutter siden, kl. 04:20 UTC
Foreløbig gælder fra 25 på 06 UTC til 26 på 06 UTC
Vind 12 kt fra sydsydvest
Sigt: 6000 m
ændring
fra 25 på 11 UTC til 25 på 13 UTC
Vind 8 kt fra sydvest
Spredte skyer i en højde af 2000 ft
Brudte skyer i en højde af 3000 ft
ændring
fra 25 på 18 UTC til 25 på 20 UTC
Vind 10 kt fra syd
Sigt: 4000 m
Overskyet i en højde af 2000 ft
let regn
Midlertidig
fra 25 på 18 UTC til 26 på 06 UTC
Vind 10 kt fra syd med vindstød på up til 19 kt
Sigt: 2000 m
Overskyet i en højde af 1000 ft, Cumulonimbus.
tordenbyger, regn

TAF: ZKPY 250420Z 2506/2606 21006MPS 6000 NSC BECMG 2511/2513 23004MPS SCT020 BKN030 BECMG 2518/2520 19005MPS 4000 -RA OVC020 TEMPO 2518/2606 19005G10MPS 2000 TSRA OVC010CB TX31/2506Z TN21/2521Z

Vejrobservationer og prognoser fra mere end 4000 lufthavne (METAR og TAF).

De gule og røde prikker repræsenterer de meteorologiske stationer.

Flyt musen over at se navnet på stationen.

Så klik over at se vejr observationer og prognoser.

At skifte det kort: Klik på de grønne knapper med et sort kors for at zoome ind; på den grønne knap med en bindestreg for at zoome ud; eller på de grønne pile for tilstødende kort.


METAR-TAF: